Terminal Aerodrome Forecast
Issued by NWS Topeka, KS

Home | Current Version | Previous Version | Graphics & Text | Print | Product List | Glossary On
Versions: 1 2 3 4 5 6 7 8 9 10 11 12 13
000
FTUS43 KTOP 150520
TAFTOP
TAF
KTOP 150520Z 1506/1606 32017G27KT P6SM OVC025
     FM150900 32013G21KT P6SM SCT025
     FM151200 31010KT P6SM FEW250
     FM160000 28003KT P6SM SKC=

USA.gov is the U.S. government's official web portal to all federal, state and local government web resources and services.